sensor_id;sensor_type;location;lat;lon;timestamp;temperature;humidity
15343;DHT22;7771;48.478;8.936;2023-07-29T00:02:19;19.10;99.90
15343;DHT22;7771;48.478;8.936;2023-07-29T00:04:46;19.10;99.90
15343;DHT22;7771;48.478;8.936;2023-07-29T00:07:13;19.10;99.90
15343;DHT22;7771;48.478;8.936;2023-07-29T00:09:40;19.10;99.90
15343;DHT22;7771;48.478;8.936;2023-07-29T00:12:07;19.00;99.90
15343;DHT22;7771;48.478;8.936;2023-07-29T00:14:34;19.00;99.90
15343;DHT22;7771;48.478;8.936;2023-07-29T00:17:01;19.00;99.90
15343;DHT22;7771;48.478;8.936;2023-07-29T00:19:28;19.00;99.90
15343;DHT22;7771;48.478;8.936;2023-07-29T00:21:55;19.00;99.90
15343;DHT22;7771;48.478;8.936;2023-07-29T00:24:22;19.00;99.90
15343;DHT22;7771;48.478;8.936;2023-07-29T00:26:49;19.00;99.90
15343;DHT22;7771;48.478;8.936;2023-07-29T00:29:15;19.00;99.90
15343;DHT22;7771;48.478;8.936;2023-07-29T00:31:43;19.10;99.90
15343;DHT22;7771;48.478;8.936;2023-07-29T00:36:38;19.10;99.90
15343;DHT22;7771;48.478;8.936;2023-07-29T00:39:05;19.00;99.90
15343;DHT22;7771;48.478;8.936;2023-07-29T00:44:00;19.00;99.90
15343;DHT22;7771;48.478;8.936;2023-07-29T00:46:28;18.90;99.90
15343;DHT22;7771;48.478;8.936;2023-07-29T00:48:54;19.00;99.90
15343;DHT22;7771;48.478;8.936;2023-07-29T00:51:22;18.90;99.90
15343;DHT22;7771;48.478;8.936;2023-07-29T00:53:50;18.90;99.90
15343;DHT22;7771;48.478;8.936;2023-07-29T00:56:18;18.80;99.90
15343;DHT22;7771;48.478;8.936;2023-07-29T00:58:45;18.90;99.90
15343;DHT22;7771;48.478;8.936;2023-07-29T01:01:13;18.80;99.90
15343;DHT22;7771;48.478;8.936;2023-07-29T01:03:40;18.90;99.90
15343;DHT22;7771;48.478;8.936;2023-07-29T01:06:12;18.80;99.90
15343;DHT22;7771;48.478;8.936;2023-07-29T01:09:14;18.80;99.90
15343;DHT22;7771;48.478;8.936;2023-07-29T01:11:36;18.80;99.90
15343;DHT22;7771;48.478;8.936;2023-07-29T01:14:04;18.80;99.90
15343;DHT22;7771;48.478;8.936;2023-07-29T01:16:41;18.80;99.90
15343;DHT22;7771;48.478;8.936;2023-07-29T01:19:12;18.80;99.90
15343;DHT22;7771;48.478;8.936;2023-07-29T01:21:37;18.70;99.90
15343;DHT22;7771;48.478;8.936;2023-07-29T01:24:04;18.70;99.90
15343;DHT22;7771;48.478;8.936;2023-07-29T01:26:31;18.70;99.90
15343;DHT22;7771;48.478;8.936;2023-07-29T01:28:58;18.70;99.90
15343;DHT22;7771;48.478;8.936;2023-07-29T01:31:30;18.70;99.90
15343;DHT22;7771;48.478;8.936;2023-07-29T01:34:02;18.70;99.90
15343;DHT22;7771;48.478;8.936;2023-07-29T01:36:28;18.70;99.90
15343;DHT22;7771;48.478;8.936;2023-07-29T01:38:53;18.70;99.90
15343;DHT22;7771;48.478;8.936;2023-07-29T01:41:20;18.70;99.90
15343;DHT22;7771;48.478;8.936;2023-07-29T01:43:47;18.70;99.90
15343;DHT22;7771;48.478;8.936;2023-07-29T01:46:14;18.60;99.90
15343;DHT22;7771;48.478;8.936;2023-07-29T01:48:41;18.70;99.90
15343;DHT22;7771;48.478;8.936;2023-07-29T01:51:09;18.60;99.90
15343;DHT22;7771;48.478;8.936;2023-07-29T01:53:34;18.60;99.90
15343;DHT22;7771;48.478;8.936;2023-07-29T01:56:01;18.60;99.90
15343;DHT22;7771;48.478;8.936;2023-07-29T01:58:28;18.60;99.90
15343;DHT22;7771;48.478;8.936;2023-07-29T02:00:55;18.60;99.90
15343;DHT22;7771;48.478;8.936;2023-07-29T02:03:22;18.50;99.90
15343;DHT22;7771;48.478;8.936;2023-07-29T02:05:50;18.50;99.90
15343;DHT22;7771;48.478;8.936;2023-07-29T02:08:17;18.50;99.90
15343;DHT22;7771;48.478;8.936;2023-07-29T02:10:43;18.50;99.90
15343;DHT22;7771;48.478;8.936;2023-07-29T02:13:11;18.40;99.90
15343;DHT22;7771;48.478;8.936;2023-07-29T02:15:38;18.40;99.90
15343;DHT22;7771;48.478;8.936;2023-07-29T02:18:05;18.40;99.90
15343;DHT22;7771;48.478;8.936;2023-07-29T02:20:33;18.40;99.90
15343;DHT22;7771;48.478;8.936;2023-07-29T02:23:00;18.40;99.90
15343;DHT22;7771;48.478;8.936;2023-07-29T02:25:26;18.40;99.90
15343;DHT22;7771;48.478;8.936;2023-07-29T02:27:53;18.40;99.90
15343;DHT22;7771;48.478;8.936;2023-07-29T02:30:20;18.30;99.90
15343;DHT22;7771;48.478;8.936;2023-07-29T02:32:46;18.30;99.90
15343;DHT22;7771;48.478;8.936;2023-07-29T02:35:14;18.30;99.90
15343;DHT22;7771;48.478;8.936;2023-07-29T02:37:42;18.30;99.90
15343;DHT22;7771;48.478;8.936;2023-07-29T02:40:09;18.30;99.90
15343;DHT22;7771;48.478;8.936;2023-07-29T02:42:36;18.30;99.90
15343;DHT22;7771;48.478;8.936;2023-07-29T02:45:03;18.30;99.90
15343;DHT22;7771;48.478;8.936;2023-07-29T02:47:30;18.30;99.90
15343;DHT22;7771;48.478;8.936;2023-07-29T02:49:58;18.20;99.90
15343;DHT22;7771;48.478;8.936;2023-07-29T02:52:25;18.30;99.90
15343;DHT22;7771;48.478;8.936;2023-07-29T02:54:51;18.20;99.90
15343;DHT22;7771;48.478;8.936;2023-07-29T02:57:20;18.20;99.90
15343;DHT22;7771;48.478;8.936;2023-07-29T02:59:47;18.20;99.90
15343;DHT22;7771;48.478;8.936;2023-07-29T03:02:15;18.20;99.90
15343;DHT22;7771;48.478;8.936;2023-07-29T03:04:41;18.20;99.90
15343;DHT22;7771;48.478;8.936;2023-07-29T03:09:36;18.30;99.90
15343;DHT22;7771;48.478;8.936;2023-07-29T03:12:03;18.30;99.90
15343;DHT22;7771;48.478;8.936;2023-07-29T03:17:01;18.30;99.90
15343;DHT22;7771;48.478;8.936;2023-07-29T03:19:25;18.30;99.90
15343;DHT22;7771;48.478;8.936;2023-07-29T03:21:53;18.20;99.90
15343;DHT22;7771;48.478;8.936;2023-07-29T03:24:20;18.20;99.90
15343;DHT22;7771;48.478;8.936;2023-07-29T03:26:46;18.20;99.90
15343;DHT22;7771;48.478;8.936;2023-07-29T03:29:15;18.30;99.90
15343;DHT22;7771;48.478;8.936;2023-07-29T03:31:42;18.30;99.90
15343;DHT22;7771;48.478;8.936;2023-07-29T03:34:08;18.30;99.90
15343;DHT22;7771;48.478;8.936;2023-07-29T03:36:35;18.30;99.90
15343;DHT22;7771;48.478;8.936;2023-07-29T03:39:02;18.30;99.90
15343;DHT22;7771;48.478;8.936;2023-07-29T03:41:29;18.30;99.90
15343;DHT22;7771;48.478;8.936;2023-07-29T03:43:56;18.30;99.90
15343;DHT22;7771;48.478;8.936;2023-07-29T03:46:24;18.30;99.90
15343;DHT22;7771;48.478;8.936;2023-07-29T03:48:50;18.30;99.90
15343;DHT22;7771;48.478;8.936;2023-07-29T03:51:17;18.30;99.90
15343;DHT22;7771;48.478;8.936;2023-07-29T03:53:44;18.30;99.90
15343;DHT22;7771;48.478;8.936;2023-07-29T03:56:12;18.40;99.90
15343;DHT22;7771;48.478;8.936;2023-07-29T03:58:39;18.30;99.90
15343;DHT22;7771;48.478;8.936;2023-07-29T04:01:07;18.30;99.90
15343;DHT22;7771;48.478;8.936;2023-07-29T04:03:33;18.30;99.90
15343;DHT22;7771;48.478;8.936;2023-07-29T04:06:00;18.30;99.90
15343;DHT22;7771;48.478;8.936;2023-07-29T04:08:27;18.30;99.90
15343;DHT22;7771;48.478;8.936;2023-07-29T04:10:54;18.30;99.90
15343;DHT22;7771;48.478;8.936;2023-07-29T04:13:21;18.30;99.90
15343;DHT22;7771;48.478;8.936;2023-07-29T04:15:49;18.30;99.90
15343;DHT22;7771;48.478;8.936;2023-07-29T04:18:16;18.40;99.90
15343;DHT22;7771;48.478;8.936;2023-07-29T04:20:43;18.30;99.90
15343;DHT22;7771;48.478;8.936;2023-07-29T04:23:10;18.30;99.90
15343;DHT22;7771;48.478;8.936;2023-07-29T04:25:36;18.40;99.90
15343;DHT22;7771;48.478;8.936;2023-07-29T04:28:04;18.40;99.90
15343;DHT22;7771;48.478;8.936;2023-07-29T04:30:30;18.40;99.90
15343;DHT22;7771;48.478;8.936;2023-07-29T04:35:26;18.40;99.90
15343;DHT22;7771;48.478;8.936;2023-07-29T04:37:54;18.40;99.90
15343;DHT22;7771;48.478;8.936;2023-07-29T04:40:21;18.40;99.90
15343;DHT22;7771;48.478;8.936;2023-07-29T04:42:48;18.40;99.90
15343;DHT22;7771;48.478;8.936;2023-07-29T04:45:15;18.40;99.90
15343;DHT22;7771;48.478;8.936;2023-07-29T04:47:43;18.50;99.90
15343;DHT22;7771;48.478;8.936;2023-07-29T04:50:10;18.50;99.90
15343;DHT22;7771;48.478;8.936;2023-07-29T04:52:37;18.60;99.90
15343;DHT22;7771;48.478;8.936;2023-07-29T04:55:04;18.50;99.90
15343;DHT22;7771;48.478;8.936;2023-07-29T04:57:31;18.50;99.90
15343;DHT22;7771;48.478;8.936;2023-07-29T04:59:58;18.40;99.90
15343;DHT22;7771;48.478;8.936;2023-07-29T05:02:26;18.50;99.90
15343;DHT22;7771;48.478;8.936;2023-07-29T05:04:53;18.50;99.90
15343;DHT22;7771;48.478;8.936;2023-07-29T05:09:48;18.50;99.90
15343;DHT22;7771;48.478;8.936;2023-07-29T05:12:14;18.60;99.90
15343;DHT22;7771;48.478;8.936;2023-07-29T05:14:42;18.60;99.90
15343;DHT22;7771;48.478;8.936;2023-07-29T05:17:08;18.70;99.90
15343;DHT22;7771;48.478;8.936;2023-07-29T05:19:36;18.70;99.90
15343;DHT22;7771;48.478;8.936;2023-07-29T05:22:02;18.80;99.90
15343;DHT22;7771;48.478;8.936;2023-07-29T05:26:58;18.90;99.90
15343;DHT22;7771;48.478;8.936;2023-07-29T05:29:25;18.90;99.90
15343;DHT22;7771;48.478;8.936;2023-07-29T05:31:51;19.00;99.90
15343;DHT22;7771;48.478;8.936;2023-07-29T05:34:19;19.10;99.90
15343;DHT22;7771;48.478;8.936;2023-07-29T05:36:45;19.10;99.90
15343;DHT22;7771;48.478;8.936;2023-07-29T05:39:14;19.20;99.90
15343;DHT22;7771;48.478;8.936;2023-07-29T05:41:41;19.20;99.90
15343;DHT22;7771;48.478;8.936;2023-07-29T05:44:08;19.40;99.90
15343;DHT22;7771;48.478;8.936;2023-07-29T05:46:35;19.50;99.90
15343;DHT22;7771;48.478;8.936;2023-07-29T05:49:03;19.50;99.90
15343;DHT22;7771;48.478;8.936;2023-07-29T05:56:44;19.80;99.90
15343;DHT22;7771;48.478;8.936;2023-07-29T05:59:11;19.80;99.90
15343;DHT22;7771;48.478;8.936;2023-07-29T06:01:39;19.80;99.90
15343;DHT22;7771;48.478;8.936;2023-07-29T06:04:05;19.80;99.90
15343;DHT22;7771;48.478;8.936;2023-07-29T06:06:34;19.90;99.90
15343;DHT22;7771;48.478;8.936;2023-07-29T06:09:01;19.90;99.90
15343;DHT22;7771;48.478;8.936;2023-07-29T06:11:28;20.00;99.90
15343;DHT22;7771;48.478;8.936;2023-07-29T06:13:54;20.10;99.90
15343;DHT22;7771;48.478;8.936;2023-07-29T06:19:08;20.20;99.90
15343;DHT22;7771;48.478;8.936;2023-07-29T06:21:35;20.20;99.90
15343;DHT22;7771;48.478;8.936;2023-07-29T06:24:02;20.20;99.90
15343;DHT22;7771;48.478;8.936;2023-07-29T06:26:30;20.30;99.90
15343;DHT22;7771;48.478;8.936;2023-07-29T06:28:57;20.20;99.90
15343;DHT22;7771;48.478;8.936;2023-07-29T06:31:24;20.30;99.90
15343;DHT22;7771;48.478;8.936;2023-07-29T06:33:50;20.40;99.90
15343;DHT22;7771;48.478;8.936;2023-07-29T06:36:17;20.50;99.90
15343;DHT22;7771;48.478;8.936;2023-07-29T06:38:44;20.50;99.90
15343;DHT22;7771;48.478;8.936;2023-07-29T06:43:39;20.50;99.90
15343;DHT22;7771;48.478;8.936;2023-07-29T06:46:06;20.40;99.90
15343;DHT22;7771;48.478;8.936;2023-07-29T06:51:00;20.30;99.90
15343;DHT22;7771;48.478;8.936;2023-07-29T06:53:27;20.30;99.90
15343;DHT22;7771;48.478;8.936;2023-07-29T06:55:54;20.20;99.90
15343;DHT22;7771;48.478;8.936;2023-07-29T07:00:50;20.20;99.90
15343;DHT22;7771;48.478;8.936;2023-07-29T07:03:16;20.20;99.90
15343;DHT22;7771;48.478;8.936;2023-07-29T07:05:44;20.10;99.90
15343;DHT22;7771;48.478;8.936;2023-07-29T07:08:11;20.10;99.90
15343;DHT22;7771;48.478;8.936;2023-07-29T07:10:38;20.10;99.90
15343;DHT22;7771;48.478;8.936;2023-07-29T07:13:06;20.20;99.90
15343;DHT22;7771;48.478;8.936;2023-07-29T07:15:33;20.20;99.90
15343;DHT22;7771;48.478;8.936;2023-07-29T07:18:00;20.30;99.90
15343;DHT22;7771;48.478;8.936;2023-07-29T07:20:27;20.40;99.90
15343;DHT22;7771;48.478;8.936;2023-07-29T07:22:54;20.40;99.90
15343;DHT22;7771;48.478;8.936;2023-07-29T07:25:21;20.50;99.90
15343;DHT22;7771;48.478;8.936;2023-07-29T07:27:47;20.60;99.90
15343;DHT22;7771;48.478;8.936;2023-07-29T07:30:15;20.70;99.90
15343;DHT22;7771;48.478;8.936;2023-07-29T07:32:41;20.90;99.90
15343;DHT22;7771;48.478;8.936;2023-07-29T07:35:09;21.00;99.90
15343;DHT22;7771;48.478;8.936;2023-07-29T07:37:35;21.20;99.90
15343;DHT22;7771;48.478;8.936;2023-07-29T07:40:02;21.50;99.90
15343;DHT22;7771;48.478;8.936;2023-07-29T07:42:29;21.70;99.90
15343;DHT22;7771;48.478;8.936;2023-07-29T07:44:56;21.70;99.90
15343;DHT22;7771;48.478;8.936;2023-07-29T07:47:23;21.80;99.90
15343;DHT22;7771;48.478;8.936;2023-07-29T07:49:50;21.80;99.90
15343;DHT22;7771;48.478;8.936;2023-07-29T07:52:16;21.80;99.90
15343;DHT22;7771;48.478;8.936;2023-07-29T07:54:44;21.90;99.90
15343;DHT22;7771;48.478;8.936;2023-07-29T07:57:10;21.90;99.90
15343;DHT22;7771;48.478;8.936;2023-07-29T07:59:38;22.00;99.90
15343;DHT22;7771;48.478;8.936;2023-07-29T08:02:04;22.00;99.90
15343;DHT22;7771;48.478;8.936;2023-07-29T08:04:32;21.90;99.90
15343;DHT22;7771;48.478;8.936;2023-07-29T08:06:58;21.90;99.90
15343;DHT22;7771;48.478;8.936;2023-07-29T08:09:26;21.90;99.90
15343;DHT22;7771;48.478;8.936;2023-07-29T08:11:53;21.90;99.90
15343;DHT22;7771;48.478;8.936;2023-07-29T08:14:20;21.80;99.90
15343;DHT22;7771;48.478;8.936;2023-07-29T08:16:47;21.80;99.90
15343;DHT22;7771;48.478;8.936;2023-07-29T08:19:14;21.80;99.90
15343;DHT22;7771;48.478;8.936;2023-07-29T08:21:41;21.80;99.90
15343;DHT22;7771;48.478;8.936;2023-07-29T08:24:08;21.90;99.90
15343;DHT22;7771;48.478;8.936;2023-07-29T08:29:03;22.00;99.90
15343;DHT22;7771;48.478;8.936;2023-07-29T08:31:31;22.00;99.90
15343;DHT22;7771;48.478;8.936;2023-07-29T08:33:58;22.00;99.90
15343;DHT22;7771;48.478;8.936;2023-07-29T08:36:25;22.00;99.90
15343;DHT22;7771;48.478;8.936;2023-07-29T08:38:53;22.10;99.90
15343;DHT22;7771;48.478;8.936;2023-07-29T08:41:24;22.30;99.90
15343;DHT22;7771;48.478;8.936;2023-07-29T08:43:51;22.70;99.90
15343;DHT22;7771;48.478;8.936;2023-07-29T08:46:16;23.00;99.90
15343;DHT22;7771;48.478;8.936;2023-07-29T08:48:44;23.30;99.90
15343;DHT22;7771;48.478;8.936;2023-07-29T08:51:11;23.70;99.90
15343;DHT22;7771;48.478;8.936;2023-07-29T08:53:37;24.00;99.90
15343;DHT22;7771;48.478;8.936;2023-07-29T08:56:04;24.30;99.90
15343;DHT22;7771;48.478;8.936;2023-07-29T08:58:31;24.70;99.90
15343;DHT22;7771;48.478;8.936;2023-07-29T09:00:57;25.00;99.90
15343;DHT22;7771;48.478;8.936;2023-07-29T09:03:24;25.40;99.90
15343;DHT22;7771;48.478;8.936;2023-07-29T09:05:51;25.70;99.90
15343;DHT22;7771;48.478;8.936;2023-07-29T09:08:18;26.00;99.90
15343;DHT22;7771;48.478;8.936;2023-07-29T09:10:45;26.20;99.90
15343;DHT22;7771;48.478;8.936;2023-07-29T09:13:12;26.40;99.90
15343;DHT22;7771;48.478;8.936;2023-07-29T09:15:39;26.70;99.90
15343;DHT22;7771;48.478;8.936;2023-07-29T09:18:21;26.80;99.90
15343;DHT22;7771;48.478;8.936;2023-07-29T09:20:49;27.00;99.90
15343;DHT22;7771;48.478;8.936;2023-07-29T09:23:15;27.10;99.90
15343;DHT22;7771;48.478;8.936;2023-07-29T09:25:42;27.20;99.90
15343;DHT22;7771;48.478;8.936;2023-07-29T09:28:10;27.30;99.90
15343;DHT22;7771;48.478;8.936;2023-07-29T09:30:37;27.40;99.90
15343;DHT22;7771;48.478;8.936;2023-07-29T09:33:04;27.50;99.90
15343;DHT22;7771;48.478;8.936;2023-07-29T09:35:32;27.60;99.90
15343;DHT22;7771;48.478;8.936;2023-07-29T09:37:58;27.70;99.90
15343;DHT22;7771;48.478;8.936;2023-07-29T09:40:24;27.80;99.90
15343;DHT22;7771;48.478;8.936;2023-07-29T09:42:52;27.80;99.90
15343;DHT22;7771;48.478;8.936;2023-07-29T09:45:20;27.90;99.90
15343;DHT22;7771;48.478;8.936;2023-07-29T09:47:47;27.90;99.90
15343;DHT22;7771;48.478;8.936;2023-07-29T09:50:14;28.00;99.90
15343;DHT22;7771;48.478;8.936;2023-07-29T09:52:41;28.00;99.90
15343;DHT22;7771;48.478;8.936;2023-07-29T09:55:08;28.00;99.90
15343;DHT22;7771;48.478;8.936;2023-07-29T09:57:35;28.00;99.90
15343;DHT22;7771;48.478;8.936;2023-07-29T10:00:03;28.10;99.90
15343;DHT22;7771;48.478;8.936;2023-07-29T10:02:30;28.20;99.90
15343;DHT22;7771;48.478;8.936;2023-07-29T10:04:58;28.20;99.90
15343;DHT22;7771;48.478;8.936;2023-07-29T10:07:25;28.30;99.90
15343;DHT22;7771;48.478;8.936;2023-07-29T10:09:51;28.30;99.90
15343;DHT22;7771;48.478;8.936;2023-07-29T10:12:18;28.40;99.90
15343;DHT22;7771;48.478;8.936;2023-07-29T10:14:45;28.40;99.90
15343;DHT22;7771;48.478;8.936;2023-07-29T10:17:12;28.50;99.90
15343;DHT22;7771;48.478;8.936;2023-07-29T10:19:40;28.60;99.90
15343;DHT22;7771;48.478;8.936;2023-07-29T10:22:07;28.80;99.90
15343;DHT22;7771;48.478;8.936;2023-07-29T10:24:34;28.70;99.90
15343;DHT22;7771;48.478;8.936;2023-07-29T10:27:01;28.80;99.90
15343;DHT22;7771;48.478;8.936;2023-07-29T10:29:30;28.80;99.90
15343;DHT22;7771;48.478;8.936;2023-07-29T10:31:56;28.70;99.90
15343;DHT22;7771;48.478;8.936;2023-07-29T10:34:23;28.60;99.90
15343;DHT22;7771;48.478;8.936;2023-07-29T10:36:50;28.50;99.90
15343;DHT22;7771;48.478;8.936;2023-07-29T10:39:16;28.50;99.90
15343;DHT22;7771;48.478;8.936;2023-07-29T10:44:49;28.40;99.90
15343;DHT22;7771;48.478;8.936;2023-07-29T10:47:18;28.20;99.90
15343;DHT22;7771;48.478;8.936;2023-07-29T10:49:45;28.20;99.90
15343;DHT22;7771;48.478;8.936;2023-07-29T10:52:14;28.00;99.90
15343;DHT22;7771;48.478;8.936;2023-07-29T10:54:49;28.00;99.90
15343;DHT22;7771;48.478;8.936;2023-07-29T10:57:18;28.00;99.90
15343;DHT22;7771;48.478;8.936;2023-07-29T11:00:02;28.10;99.90
15343;DHT22;7771;48.478;8.936;2023-07-29T11:02:31;28.10;99.90
15343;DHT22;7771;48.478;8.936;2023-07-29T11:04:57;28.00;99.90
15343;DHT22;7771;48.478;8.936;2023-07-29T11:07:26;27.90;99.90
15343;DHT22;7771;48.478;8.936;2023-07-29T11:15:04;27.80;99.90
15343;DHT22;7771;48.478;8.936;2023-07-29T11:17:31;27.70;99.90
15343;DHT22;7771;48.478;8.936;2023-07-29T11:19:58;27.60;99.90
15343;DHT22;7771;48.478;8.936;2023-07-29T11:22:25;27.50;99.90
15343;DHT22;7771;48.478;8.936;2023-07-29T11:24:53;27.50;99.90
15343;DHT22;7771;48.478;8.936;2023-07-29T11:27:20;27.40;99.90
15343;DHT22;7771;48.478;8.936;2023-07-29T11:29:47;27.30;99.90
15343;DHT22;7771;48.478;8.936;2023-07-29T11:32:14;27.30;99.90
15343;DHT22;7771;48.478;8.936;2023-07-29T11:34:41;27.20;99.90
15343;DHT22;7771;48.478;8.936;2023-07-29T11:37:10;27.00;99.90
15343;DHT22;7771;48.478;8.936;2023-07-29T11:39:40;27.00;99.90
15343;DHT22;7771;48.478;8.936;2023-07-29T11:42:06;26.90;99.90
15343;DHT22;7771;48.478;8.936;2023-07-29T11:44:33;26.90;99.90
15343;DHT22;7771;48.478;8.936;2023-07-29T11:47:00;27.00;99.90
15343;DHT22;7771;48.478;8.936;2023-07-29T11:49:28;27.10;99.90
15343;DHT22;7771;48.478;8.936;2023-07-29T11:51:55;27.10;99.90
15343;DHT22;7771;48.478;8.936;2023-07-29T11:54:23;27.10;99.90
15343;DHT22;7771;48.478;8.936;2023-07-29T11:56:49;27.10;99.90
15343;DHT22;7771;48.478;8.936;2023-07-29T11:59:16;27.20;99.90
15343;DHT22;7771;48.478;8.936;2023-07-29T12:01:44;27.30;99.90
15343;DHT22;7771;48.478;8.936;2023-07-29T12:04:11;27.30;99.90
15343;DHT22;7771;48.478;8.936;2023-07-29T12:06:39;27.30;99.90
15343;DHT22;7771;48.478;8.936;2023-07-29T12:09:06;27.30;99.90
15343;DHT22;7771;48.478;8.936;2023-07-29T12:11:34;27.30;99.90
15343;DHT22;7771;48.478;8.936;2023-07-29T12:14:00;27.20;99.90
15343;DHT22;7771;48.478;8.936;2023-07-29T12:16:28;27.30;99.90
15343;DHT22;7771;48.478;8.936;2023-07-29T12:18:55;27.30;99.90
15343;DHT22;7771;48.478;8.936;2023-07-29T12:21:23;27.30;99.90
15343;DHT22;7771;48.478;8.936;2023-07-29T12:23:50;27.40;99.90
15343;DHT22;7771;48.478;8.936;2023-07-29T12:26:18;27.40;99.90
15343;DHT22;7771;48.478;8.936;2023-07-29T12:28:46;27.50;99.90
15343;DHT22;7771;48.478;8.936;2023-07-29T12:31:13;27.50;99.90
15343;DHT22;7771;48.478;8.936;2023-07-29T12:33:40;27.50;99.90
15343;DHT22;7771;48.478;8.936;2023-07-29T12:36:07;27.50;99.90
15343;DHT22;7771;48.478;8.936;2023-07-29T12:38:35;27.60;99.90
15343;DHT22;7771;48.478;8.936;2023-07-29T12:41:01;27.60;99.90
15343;DHT22;7771;48.478;8.936;2023-07-29T12:43:28;27.60;99.90
15343;DHT22;7771;48.478;8.936;2023-07-29T12:45:56;27.70;99.90
15343;DHT22;7771;48.478;8.936;2023-07-29T12:48:22;27.80;99.90
15343;DHT22;7771;48.478;8.936;2023-07-29T12:50:49;27.90;99.40
15343;DHT22;7771;48.478;8.936;2023-07-29T12:53:17;27.90;99.50
15343;DHT22;7771;48.478;8.936;2023-07-29T12:55:43;28.00;99.50
15343;DHT22;7771;48.478;8.936;2023-07-29T12:58:10;28.00;99.70
15343;DHT22;7771;48.478;8.936;2023-07-29T13:00:38;28.10;99.90
15343;DHT22;7771;48.478;8.936;2023-07-29T13:03:05;28.20;99.80
15343;DHT22;7771;48.478;8.936;2023-07-29T13:08:18;28.30;98.90
15343;DHT22;7771;48.478;8.936;2023-07-29T13:10:44;28.20;99.20
15343;DHT22;7771;48.478;8.936;2023-07-29T13:13:11;28.30;99.00
15343;DHT22;7771;48.478;8.936;2023-07-29T13:15:37;28.30;98.60
15343;DHT22;7771;48.478;8.936;2023-07-29T13:18:05;28.30;98.50
15343;DHT22;7771;48.478;8.936;2023-07-29T13:20:32;28.30;98.30
15343;DHT22;7771;48.478;8.936;2023-07-29T13:22:58;28.30;97.90
15343;DHT22;7771;48.478;8.936;2023-07-29T13:25:26;28.30;97.80
15343;DHT22;7771;48.478;8.936;2023-07-29T13:27:53;28.20;97.90
15343;DHT22;7771;48.478;8.936;2023-07-29T13:30:20;28.20;97.90
15343;DHT22;7771;48.478;8.936;2023-07-29T13:32:47;28.20;97.90
15343;DHT22;7771;48.478;8.936;2023-07-29T13:35:14;28.20;98.20
15343;DHT22;7771;48.478;8.936;2023-07-29T13:37:41;28.10;98.30
15343;DHT22;7771;48.478;8.936;2023-07-29T13:40:08;28.10;98.10
15343;DHT22;7771;48.478;8.936;2023-07-29T13:42:36;28.10;98.30
15343;DHT22;7771;48.478;8.936;2023-07-29T13:45:04;28.20;98.40
15343;DHT22;7771;48.478;8.936;2023-07-29T13:47:31;28.20;98.10
15343;DHT22;7771;48.478;8.936;2023-07-29T13:49:57;28.20;97.60
15343;DHT22;7771;48.478;8.936;2023-07-29T13:52:24;28.20;96.80
15343;DHT22;7771;48.478;8.936;2023-07-29T13:54:51;28.20;97.00
15343;DHT22;7771;48.478;8.936;2023-07-29T13:57:18;28.10;97.00
15343;DHT22;7771;48.478;8.936;2023-07-29T13:59:44;28.10;97.20
15343;DHT22;7771;48.478;8.936;2023-07-29T14:02:12;28.00;97.20
15343;DHT22;7771;48.478;8.936;2023-07-29T14:04:38;28.00;96.90
15343;DHT22;7771;48.478;8.936;2023-07-29T14:07:05;27.90;96.30
15343;DHT22;7771;48.478;8.936;2023-07-29T14:09:33;27.90;96.40
15343;DHT22;7771;48.478;8.936;2023-07-29T14:11:59;28.00;96.40
15343;DHT22;7771;48.478;8.936;2023-07-29T14:14:26;27.90;96.40
15343;DHT22;7771;48.478;8.936;2023-07-29T14:16:54;28.00;96.50
15343;DHT22;7771;48.478;8.936;2023-07-29T14:19:21;28.00;96.60
15343;DHT22;7771;48.478;8.936;2023-07-29T14:21:49;28.10;96.70
15343;DHT22;7771;48.478;8.936;2023-07-29T14:24:16;28.20;96.60
15343;DHT22;7771;48.478;8.936;2023-07-29T14:26:43;28.20;96.40
15343;DHT22;7771;48.478;8.936;2023-07-29T14:29:10;28.20;96.50
15343;DHT22;7771;48.478;8.936;2023-07-29T14:31:37;28.10;96.20
15343;DHT22;7771;48.478;8.936;2023-07-29T14:34:04;28.10;96.60
15343;DHT22;7771;48.478;8.936;2023-07-29T14:36:32;28.10;96.50
15343;DHT22;7771;48.478;8.936;2023-07-29T14:38:59;28.10;96.00
15343;DHT22;7771;48.478;8.936;2023-07-29T14:41:26;28.10;96.10
15343;DHT22;7771;48.478;8.936;2023-07-29T14:43:53;28.00;96.20
15343;DHT22;7771;48.478;8.936;2023-07-29T14:46:21;27.90;96.30
15343;DHT22;7771;48.478;8.936;2023-07-29T14:48:47;27.90;96.40
15343;DHT22;7771;48.478;8.936;2023-07-29T14:51:15;27.90;96.50
15343;DHT22;7771;48.478;8.936;2023-07-29T14:53:42;27.90;96.50
15343;DHT22;7771;48.478;8.936;2023-07-29T14:56:09;27.80;96.40
15343;DHT22;7771;48.478;8.936;2023-07-29T14:58:36;27.70;96.20
15343;DHT22;7771;48.478;8.936;2023-07-29T15:01:02;27.70;96.50
15343;DHT22;7771;48.478;8.936;2023-07-29T15:03:29;27.60;96.70
15343;DHT22;7771;48.478;8.936;2023-07-29T15:05:56;27.70;96.80
15343;DHT22;7771;48.478;8.936;2023-07-29T15:08:23;27.60;96.50
15343;DHT22;7771;48.478;8.936;2023-07-29T15:10:50;27.60;96.50
15343;DHT22;7771;48.478;8.936;2023-07-29T15:13:16;27.60;96.50
15343;DHT22;7771;48.478;8.936;2023-07-29T15:15:43;27.60;96.60
15343;DHT22;7771;48.478;8.936;2023-07-29T15:18:10;27.50;96.70
15343;DHT22;7771;48.478;8.936;2023-07-29T15:20:36;27.50;96.70
15343;DHT22;7771;48.478;8.936;2023-07-29T15:23:04;27.50;96.70
15343;DHT22;7771;48.478;8.936;2023-07-29T15:27:59;27.40;97.00
15343;DHT22;7771;48.478;8.936;2023-07-29T15:30:26;27.40;97.30
15343;DHT22;7771;48.478;8.936;2023-07-29T15:32:53;27.40;97.30
15343;DHT22;7771;48.478;8.936;2023-07-29T15:35:21;27.40;97.30
15343;DHT22;7771;48.478;8.936;2023-07-29T15:37:49;27.40;97.40
15343;DHT22;7771;48.478;8.936;2023-07-29T15:40:17;27.50;97.40
15343;DHT22;7771;48.478;8.936;2023-07-29T15:42:43;27.50;97.20
15343;DHT22;7771;48.478;8.936;2023-07-29T15:45:10;27.50;97.20
15343;DHT22;7771;48.478;8.936;2023-07-29T15:47:37;27.50;97.10
15343;DHT22;7771;48.478;8.936;2023-07-29T15:50:04;27.50;97.10
15343;DHT22;7771;48.478;8.936;2023-07-29T15:52:31;27.40;97.20
15343;DHT22;7771;48.478;8.936;2023-07-29T15:54:58;27.40;97.20
15343;DHT22;7771;48.478;8.936;2023-07-29T15:57:25;27.30;98.10
15343;DHT22;7771;48.478;8.936;2023-07-29T15:59:53;27.20;98.60
15343;DHT22;7771;48.478;8.936;2023-07-29T16:02:20;27.10;99.00
15343;DHT22;7771;48.478;8.936;2023-07-29T16:04:47;26.90;99.90
15343;DHT22;7771;48.478;8.936;2023-07-29T16:07:15;26.80;99.80
15343;DHT22;7771;48.478;8.936;2023-07-29T16:09:42;26.80;99.70
15343;DHT22;7771;48.478;8.936;2023-07-29T16:12:08;26.60;99.80
15343;DHT22;7771;48.478;8.936;2023-07-29T16:14:36;26.50;99.90
15343;DHT22;7771;48.478;8.936;2023-07-29T16:17:03;26.40;99.90
15343;DHT22;7771;48.478;8.936;2023-07-29T16:19:30;26.30;99.90
15343;DHT22;7771;48.478;8.936;2023-07-29T16:21:57;26.20;99.90
15343;DHT22;7771;48.478;8.936;2023-07-29T16:24:24;26.10;99.90
15343;DHT22;7771;48.478;8.936;2023-07-29T16:26:51;26.00;99.90
15343;DHT22;7771;48.478;8.936;2023-07-29T16:29:19;25.90;99.90
15343;DHT22;7771;48.478;8.936;2023-07-29T16:31:46;25.80;99.90
15343;DHT22;7771;48.478;8.936;2023-07-29T16:34:13;25.70;99.90